sensor_id;sensor_type;location;lat;lon;timestamp;P1;durP1;ratioP1;P2;durP2;ratioP2
29330;SDS011;16331;52.528;13.342;2023-06-14T00:02:24;4.75;;;2.38;;
29330;SDS011;16331;52.528;13.342;2023-06-14T00:04:50;5.53;;;2.17;;
29330;SDS011;16331;52.528;13.342;2023-06-14T00:07:16;4.88;;;2.20;;
29330;SDS011;16331;52.528;13.342;2023-06-14T00:09:43;6.78;;;2.45;;
29330;SDS011;16331;52.528;13.342;2023-06-14T00:12:10;5.75;;;2.15;;
29330;SDS011;16331;52.528;13.342;2023-06-14T00:14:40;3.72;;;1.95;;
29330;SDS011;16331;52.528;13.342;2023-06-14T00:17:07;2.47;;;1.98;;
29330;SDS011;16331;52.528;13.342;2023-06-14T00:19:33;3.50;;;2.05;;
29330;SDS011;16331;52.528;13.342;2023-06-14T00:22:03;3.35;;;2.10;;
29330;SDS011;16331;52.528;13.342;2023-06-14T00:24:30;3.70;;;1.90;;
29330;SDS011;16331;52.528;13.342;2023-06-14T00:26:56;4.32;;;2.28;;
29330;SDS011;16331;52.528;13.342;2023-06-14T00:29:22;2.97;;;2.00;;
29330;SDS011;16331;52.528;13.342;2023-06-14T00:31:48;4.55;;;2.22;;
29330;SDS011;16331;52.528;13.342;2023-06-14T00:34:17;7.85;;;2.60;;
29330;SDS011;16331;52.528;13.342;2023-06-14T00:36:44;5.18;;;2.25;;
29330;SDS011;16331;52.528;13.342;2023-06-14T00:39:10;7.75;;;3.08;;
29330;SDS011;16331;52.528;13.342;2023-06-14T00:41:40;6.45;;;2.63;;
29330;SDS011;16331;52.528;13.342;2023-06-14T00:44:06;4.22;;;2.05;;
29330;SDS011;16331;52.528;13.342;2023-06-14T00:49:25;5.03;;;2.95;;
29330;SDS011;16331;52.528;13.342;2023-06-14T00:51:52;5.53;;;2.60;;
29330;SDS011;16331;52.528;13.342;2023-06-14T00:54:21;4.43;;;2.67;;
29330;SDS011;16331;52.528;13.342;2023-06-14T00:56:48;5.47;;;2.53;;
29330;SDS011;16331;52.528;13.342;2023-06-14T00:59:14;6.38;;;3.50;;
29330;SDS011;16331;52.528;13.342;2023-06-14T01:01:41;6.10;;;3.17;;
29330;SDS011;16331;52.528;13.342;2023-06-14T01:04:09;5.15;;;2.88;;
29330;SDS011;16331;52.528;13.342;2023-06-14T01:15:13;8.15;;;3.15;;
29330;SDS011;16331;52.528;13.342;2023-06-14T01:17:42;4.18;;;2.72;;
29330;SDS011;16331;52.528;13.342;2023-06-14T01:20:11;3.85;;;2.80;;
29330;SDS011;16331;52.528;13.342;2023-06-14T01:22:49;5.90;;;2.97;;
29330;SDS011;16331;52.528;13.342;2023-06-14T01:25:17;11.57;;;3.33;;
29330;SDS011;16331;52.528;13.342;2023-06-14T01:27:51;3.72;;;3.03;;
29330;SDS011;16331;52.528;13.342;2023-06-14T01:30:23;4.80;;;2.95;;
29330;SDS011;16331;52.528;13.342;2023-06-14T01:32:50;4.07;;;3.08;;
29330;SDS011;16331;52.528;13.342;2023-06-14T01:35:18;6.75;;;3.13;;
29330;SDS011;16331;52.528;13.342;2023-06-14T01:37:46;6.50;;;3.17;;
29330;SDS011;16331;52.528;13.342;2023-06-14T01:40:16;8.70;;;3.67;;
29330;SDS011;16331;52.528;13.342;2023-06-14T01:42:45;5.53;;;2.97;;
29330;SDS011;16331;52.528;13.342;2023-06-14T01:45:15;4.45;;;3.13;;
29330;SDS011;16331;52.528;13.342;2023-06-14T01:47:45;4.70;;;3.22;;
29330;SDS011;16331;52.528;13.342;2023-06-14T01:50:13;8.43;;;5.32;;
29330;SDS011;16331;52.528;13.342;2023-06-14T01:52:41;6.15;;;3.40;;
29330;SDS011;16331;52.528;13.342;2023-06-14T01:55:11;7.43;;;4.40;;
29330;SDS011;16331;52.528;13.342;2023-06-14T01:57:38;5.07;;;3.10;;
29330;SDS011;16331;52.528;13.342;2023-06-14T02:00:06;7.60;;;3.22;;
29330;SDS011;16331;52.528;13.342;2023-06-14T02:02:35;8.15;;;3.65;;
29330;SDS011;16331;52.528;13.342;2023-06-14T02:05:01;4.40;;;3.15;;
29330;SDS011;16331;52.528;13.342;2023-06-14T02:07:27;3.97;;;3.25;;
29330;SDS011;16331;52.528;13.342;2023-06-14T02:09:57;4.22;;;3.15;;
29330;SDS011;16331;52.528;13.342;2023-06-14T02:12:25;7.38;;;4.05;;
29330;SDS011;16331;52.528;13.342;2023-06-14T02:14:52;8.60;;;3.45;;
29330;SDS011;16331;52.528;13.342;2023-06-14T02:17:19;8.32;;;3.40;;
29330;SDS011;16331;52.528;13.342;2023-06-14T02:19:45;8.02;;;3.17;;
29330;SDS011;16331;52.528;13.342;2023-06-14T02:22:11;7.57;;;3.95;;
29330;SDS011;16331;52.528;13.342;2023-06-14T02:24:40;6.97;;;4.20;;
29330;SDS011;16331;52.528;13.342;2023-06-14T02:27:07;5.22;;;3.80;;
29330;SDS011;16331;52.528;13.342;2023-06-14T02:29:40;4.40;;;3.35;;
29330;SDS011;16331;52.528;13.342;2023-06-14T02:32:06;7.72;;;3.78;;
29330;SDS011;16331;52.528;13.342;2023-06-14T02:34:34;10.18;;;4.25;;
29330;SDS011;16331;52.528;13.342;2023-06-14T02:37:06;10.68;;;3.83;;
29330;SDS011;16331;52.528;13.342;2023-06-14T02:39:41;6.40;;;3.78;;
29330;SDS011;16331;52.528;13.342;2023-06-14T02:42:07;6.10;;;3.55;;
29330;SDS011;16331;52.528;13.342;2023-06-14T02:44:33;6.60;;;3.92;;
29330;SDS011;16331;52.528;13.342;2023-06-14T02:47:01;6.10;;;3.85;;
29330;SDS011;16331;52.528;13.342;2023-06-14T02:49:28;5.78;;;3.78;;
29330;SDS011;16331;52.528;13.342;2023-06-14T02:51:55;7.80;;;3.65;;
29330;SDS011;16331;52.528;13.342;2023-06-14T02:54:22;7.55;;;3.55;;
29330;SDS011;16331;52.528;13.342;2023-06-14T02:56:49;6.22;;;3.60;;
29330;SDS011;16331;52.528;13.342;2023-06-14T02:59:15;5.05;;;3.58;;
29330;SDS011;16331;52.528;13.342;2023-06-14T03:01:45;6.07;;;3.95;;
29330;SDS011;16331;52.528;13.342;2023-06-14T03:04:11;8.32;;;4.55;;
29330;SDS011;16331;52.528;13.342;2023-06-14T03:06:42;6.65;;;4.18;;
29330;SDS011;16331;52.528;13.342;2023-06-14T03:09:09;10.00;;;4.47;;
29330;SDS011;16331;52.528;13.342;2023-06-14T03:11:35;5.60;;;3.47;;
29330;SDS011;16331;52.528;13.342;2023-06-14T03:14:01;8.02;;;3.58;;
29330;SDS011;16331;52.528;13.342;2023-06-14T03:16:29;10.45;;;4.00;;
29330;SDS011;16331;52.528;13.342;2023-06-14T03:18:56;8.52;;;4.05;;
29330;SDS011;16331;52.528;13.342;2023-06-14T03:21:23;8.07;;;4.00;;
29330;SDS011;16331;52.528;13.342;2023-06-14T03:23:49;11.60;;;4.65;;
29330;SDS011;16331;52.528;13.342;2023-06-14T03:26:16;12.00;;;4.40;;
29330;SDS011;16331;52.528;13.342;2023-06-14T03:28:47;5.30;;;3.58;;
29330;SDS011;16331;52.528;13.342;2023-06-14T03:31:14;7.10;;;4.35;;
29330;SDS011;16331;52.528;13.342;2023-06-14T03:33:41;6.75;;;4.07;;
29330;SDS011;16331;52.528;13.342;2023-06-14T03:36:07;8.57;;;4.63;;
29330;SDS011;16331;52.528;13.342;2023-06-14T03:38:36;7.95;;;4.40;;
29330;SDS011;16331;52.528;13.342;2023-06-14T03:41:05;10.27;;;4.35;;
29330;SDS011;16331;52.528;13.342;2023-06-14T03:43:31;10.88;;;4.68;;
29330;SDS011;16331;52.528;13.342;2023-06-14T03:45:59;6.78;;;4.80;;
29330;SDS011;16331;52.528;13.342;2023-06-14T03:48:26;11.93;;;5.05;;
29330;SDS011;16331;52.528;13.342;2023-06-14T03:50:53;7.88;;;4.55;;
29330;SDS011;16331;52.528;13.342;2023-06-14T03:53:20;10.27;;;5.45;;
29330;SDS011;16331;52.528;13.342;2023-06-14T03:55:49;13.80;;;4.88;;
29330;SDS011;16331;52.528;13.342;2023-06-14T03:58:19;8.60;;;5.10;;
29330;SDS011;16331;52.528;13.342;2023-06-14T04:00:47;9.20;;;4.72;;
29330;SDS011;16331;52.528;13.342;2023-06-14T04:03:14;8.52;;;4.95;;
29330;SDS011;16331;52.528;13.342;2023-06-14T04:05:41;9.80;;;5.10;;
29330;SDS011;16331;52.528;13.342;2023-06-14T04:08:07;14.43;;;5.72;;
29330;SDS011;16331;52.528;13.342;2023-06-14T04:10:36;8.85;;;4.95;;
29330;SDS011;16331;52.528;13.342;2023-06-14T04:13:02;9.82;;;4.55;;
29330;SDS011;16331;52.528;13.342;2023-06-14T04:15:29;9.18;;;5.38;;
29330;SDS011;16331;52.528;13.342;2023-06-14T04:17:59;11.82;;;4.88;;
29330;SDS011;16331;52.528;13.342;2023-06-14T04:20:30;10.07;;;4.55;;
29330;SDS011;16331;52.528;13.342;2023-06-14T04:22:56;8.18;;;5.35;;
29330;SDS011;16331;52.528;13.342;2023-06-14T04:25:38;15.32;;;5.10;;
29330;SDS011;16331;52.528;13.342;2023-06-14T04:28:05;10.50;;;5.35;;
29330;SDS011;16331;52.528;13.342;2023-06-14T04:30:34;12.48;;;4.57;;
29330;SDS011;16331;52.528;13.342;2023-06-14T04:33:05;8.27;;;4.82;;
29330;SDS011;16331;52.528;13.342;2023-06-14T04:35:32;9.43;;;4.75;;
29330;SDS011;16331;52.528;13.342;2023-06-14T04:38:01;8.57;;;4.47;;
29330;SDS011;16331;52.528;13.342;2023-06-14T04:40:30;9.45;;;4.80;;
29330;SDS011;16331;52.528;13.342;2023-06-14T04:42:58;12.05;;;5.05;;
29330;SDS011;16331;52.528;13.342;2023-06-14T04:45:27;13.80;;;5.63;;
29330;SDS011;16331;52.528;13.342;2023-06-14T04:47:58;9.02;;;4.47;;
29330;SDS011;16331;52.528;13.342;2023-06-14T04:50:27;14.05;;;5.03;;
29330;SDS011;16331;52.528;13.342;2023-06-14T04:52:54;8.88;;;5.38;;
29330;SDS011;16331;52.528;13.342;2023-06-14T04:55:30;9.20;;;4.80;;
29330;SDS011;16331;52.528;13.342;2023-06-14T04:57:57;8.30;;;4.72;;
29330;SDS011;16331;52.528;13.342;2023-06-14T05:00:24;13.90;;;5.22;;
29330;SDS011;16331;52.528;13.342;2023-06-14T05:02:51;8.93;;;4.85;;
29330;SDS011;16331;52.528;13.342;2023-06-14T05:05:18;8.43;;;4.82;;
29330;SDS011;16331;52.528;13.342;2023-06-14T05:07:45;19.10;;;6.85;;
29330;SDS011;16331;52.528;13.342;2023-06-14T05:10:12;8.68;;;4.90;;
29330;SDS011;16331;52.528;13.342;2023-06-14T05:12:39;9.50;;;4.70;;
29330;SDS011;16331;52.528;13.342;2023-06-14T05:15:09;8.93;;;5.97;;
29330;SDS011;16331;52.528;13.342;2023-06-14T05:17:35;10.68;;;5.57;;
29330;SDS011;16331;52.528;13.342;2023-06-14T05:20:02;10.70;;;4.72;;
29330;SDS011;16331;52.528;13.342;2023-06-14T05:25:01;11.00;;;5.47;;
29330;SDS011;16331;52.528;13.342;2023-06-14T05:27:43;8.40;;;4.65;;
29330;SDS011;16331;52.528;13.342;2023-06-14T05:30:11;15.60;;;5.18;;
29330;SDS011;16331;52.528;13.342;2023-06-14T05:32:47;7.85;;;4.88;;
29330;SDS011;16331;52.528;13.342;2023-06-14T05:35:18;8.90;;;4.60;;
29330;SDS011;16331;52.528;13.342;2023-06-14T05:37:44;8.43;;;5.28;;
29330;SDS011;16331;52.528;13.342;2023-06-14T05:40:14;10.88;;;4.90;;
29330;SDS011;16331;52.528;13.342;2023-06-14T05:42:42;8.82;;;4.43;;
29330;SDS011;16331;52.528;13.342;2023-06-14T05:45:08;9.27;;;5.40;;
29330;SDS011;16331;52.528;13.342;2023-06-14T05:47:36;9.55;;;4.90;;
29330;SDS011;16331;52.528;13.342;2023-06-14T05:50:05;14.55;;;5.95;;
29330;SDS011;16331;52.528;13.342;2023-06-14T05:52:35;17.40;;;5.53;;
29330;SDS011;16331;52.528;13.342;2023-06-14T05:55:10;11.90;;;4.90;;
29330;SDS011;16331;52.528;13.342;2023-06-14T06:00:06;11.10;;;5.88;;
29330;SDS011;16331;52.528;13.342;2023-06-14T06:02:40;14.35;;;5.78;;
29330;SDS011;16331;52.528;13.342;2023-06-14T06:05:08;13.13;;;6.47;;
29330;SDS011;16331;52.528;13.342;2023-06-14T06:07:40;11.98;;;5.57;;
29330;SDS011;16331;52.528;13.342;2023-06-14T06:10:12;12.30;;;6.13;;
29330;SDS011;16331;52.528;13.342;2023-06-14T06:12:44;10.85;;;5.32;;
29330;SDS011;16331;52.528;13.342;2023-06-14T06:15:13;11.02;;;5.30;;
29330;SDS011;16331;52.528;13.342;2023-06-14T06:17:40;13.35;;;5.47;;
29330;SDS011;16331;52.528;13.342;2023-06-14T06:20:08;13.40;;;6.00;;
29330;SDS011;16331;52.528;13.342;2023-06-14T06:22:38;9.15;;;5.20;;
29330;SDS011;16331;52.528;13.342;2023-06-14T06:25:08;11.95;;;5.43;;
29330;SDS011;16331;52.528;13.342;2023-06-14T06:27:44;15.38;;;5.55;;
29330;SDS011;16331;52.528;13.342;2023-06-14T06:30:11;18.38;;;5.07;;
29330;SDS011;16331;52.528;13.342;2023-06-14T06:32:41;8.85;;;4.65;;
29330;SDS011;16331;52.528;13.342;2023-06-14T06:38:04;10.30;;;4.88;;
29330;SDS011;16331;52.528;13.342;2023-06-14T06:40:31;21.13;;;6.22;;
29330;SDS011;16331;52.528;13.342;2023-06-14T06:42:58;11.77;;;6.43;;
29330;SDS011;16331;52.528;13.342;2023-06-14T06:45:25;8.10;;;4.88;;
29330;SDS011;16331;52.528;13.342;2023-06-14T06:47:59;5.38;;;3.58;;
29330;SDS011;16331;52.528;13.342;2023-06-14T06:50:25;8.05;;;4.55;;
29330;SDS011;16331;52.528;13.342;2023-06-14T06:52:51;7.88;;;4.38;;
29330;SDS011;16331;52.528;13.342;2023-06-14T06:55:21;10.75;;;4.32;;
29330;SDS011;16331;52.528;13.342;2023-06-14T06:57:48;8.80;;;4.63;;
29330;SDS011;16331;52.528;13.342;2023-06-14T07:00:30;7.90;;;4.78;;
29330;SDS011;16331;52.528;13.342;2023-06-14T07:02:56;9.98;;;4.15;;
29330;SDS011;16331;52.528;13.342;2023-06-14T07:05:23;7.00;;;4.32;;
29330;SDS011;16331;52.528;13.342;2023-06-14T07:07:50;5.00;;;4.03;;
29330;SDS011;16331;52.528;13.342;2023-06-14T07:10:20;7.38;;;4.57;;
29330;SDS011;16331;52.528;13.342;2023-06-14T07:12:50;14.57;;;4.38;;
29330;SDS011;16331;52.528;13.342;2023-06-14T07:15:16;7.00;;;4.30;;
29330;SDS011;16331;52.528;13.342;2023-06-14T07:17:46;8.57;;;5.65;;
29330;SDS011;16331;52.528;13.342;2023-06-14T07:20:12;11.68;;;5.88;;
29330;SDS011;16331;52.528;13.342;2023-06-14T07:22:41;8.98;;;4.88;;
29330;SDS011;16331;52.528;13.342;2023-06-14T07:25:14;8.60;;;4.78;;
29330;SDS011;16331;52.528;13.342;2023-06-14T07:27:48;13.65;;;4.88;;
29330;SDS011;16331;52.528;13.342;2023-06-14T07:30:15;8.32;;;4.35;;
29330;SDS011;16331;52.528;13.342;2023-06-14T07:32:41;10.75;;;4.88;;
29330;SDS011;16331;52.528;13.342;2023-06-14T07:35:08;9.70;;;4.13;;
29330;SDS011;16331;52.528;13.342;2023-06-14T07:37:34;9.13;;;4.20;;
29330;SDS011;16331;52.528;13.342;2023-06-14T07:40:01;14.13;;;5.25;;
29330;SDS011;16331;52.528;13.342;2023-06-14T07:42:33;12.85;;;5.13;;
29330;SDS011;16331;52.528;13.342;2023-06-14T07:45:00;9.02;;;4.20;;
29330;SDS011;16331;52.528;13.342;2023-06-14T07:47:27;9.00;;;4.50;;
29330;SDS011;16331;52.528;13.342;2023-06-14T07:49:53;9.48;;;3.80;;
29330;SDS011;16331;52.528;13.342;2023-06-14T07:52:21;12.27;;;5.25;;
29330;SDS011;16331;52.528;13.342;2023-06-14T07:54:49;8.23;;;3.90;;
29330;SDS011;16331;52.528;13.342;2023-06-14T07:57:15;12.25;;;5.93;;
29330;SDS011;16331;52.528;13.342;2023-06-14T07:59:41;7.22;;;4.00;;
29330;SDS011;16331;52.528;13.342;2023-06-14T08:02:07;9.38;;;5.03;;
29330;SDS011;16331;52.528;13.342;2023-06-14T08:04:35;5.45;;;3.42;;
29330;SDS011;16331;52.528;13.342;2023-06-14T08:07:05;10.95;;;3.55;;
29330;SDS011;16331;52.528;13.342;2023-06-14T08:09:32;6.95;;;3.35;;
29330;SDS011;16331;52.528;13.342;2023-06-14T08:12:04;13.75;;;3.63;;
29330;SDS011;16331;52.528;13.342;2023-06-14T08:14:34;10.07;;;3.57;;
29330;SDS011;16331;52.528;13.342;2023-06-14T08:17:00;8.10;;;3.90;;
29330;SDS011;16331;52.528;13.342;2023-06-14T08:19:27;6.72;;;3.80;;
29330;SDS011;16331;52.528;13.342;2023-06-14T08:21:53;3.90;;;2.88;;
29330;SDS011;16331;52.528;13.342;2023-06-14T08:24:21;6.65;;;3.92;;
29330;SDS011;16331;52.528;13.342;2023-06-14T08:26:53;7.05;;;3.00;;
29330;SDS011;16331;52.528;13.342;2023-06-14T08:29:19;13.50;;;3.35;;
29330;SDS011;16331;52.528;13.342;2023-06-14T08:31:47;5.20;;;3.20;;
29330;SDS011;16331;52.528;13.342;2023-06-14T08:34:13;14.20;;;3.38;;
29330;SDS011;16331;52.528;13.342;2023-06-14T08:36:41;7.93;;;3.20;;
29330;SDS011;16331;52.528;13.342;2023-06-14T08:39:07;9.15;;;3.67;;
29330;SDS011;16331;52.528;13.342;2023-06-14T08:41:35;5.90;;;3.58;;
29330;SDS011;16331;52.528;13.342;2023-06-14T08:44:01;9.07;;;3.38;;
29330;SDS011;16331;52.528;13.342;2023-06-14T08:46:28;5.43;;;3.60;;
29330;SDS011;16331;52.528;13.342;2023-06-14T08:48:59;6.82;;;3.50;;
29330;SDS011;16331;52.528;13.342;2023-06-14T08:51:26;6.53;;;3.33;;
29330;SDS011;16331;52.528;13.342;2023-06-14T08:54:00;3.85;;;2.72;;
29330;SDS011;16331;52.528;13.342;2023-06-14T08:56:27;7.18;;;3.00;;
29330;SDS011;16331;52.528;13.342;2023-06-14T08:58:54;5.25;;;3.22;;
29330;SDS011;16331;52.528;13.342;2023-06-14T09:01:22;8.57;;;4.38;;
29330;SDS011;16331;52.528;13.342;2023-06-14T09:03:49;8.60;;;3.95;;
29330;SDS011;16331;52.528;13.342;2023-06-14T09:06:16;5.15;;;3.25;;
29330;SDS011;16331;52.528;13.342;2023-06-14T09:08:44;7.13;;;3.13;;
29330;SDS011;16331;52.528;13.342;2023-06-14T09:11:14;13.68;;;3.28;;
29330;SDS011;16331;52.528;13.342;2023-06-14T09:13:44;7.95;;;2.65;;
29330;SDS011;16331;52.528;13.342;2023-06-14T09:16:16;6.55;;;3.20;;
29330;SDS011;16331;52.528;13.342;2023-06-14T09:18:45;2.63;;;2.10;;
29330;SDS011;16331;52.528;13.342;2023-06-14T09:21:15;4.80;;;2.88;;
29330;SDS011;16331;52.528;13.342;2023-06-14T09:23:44;5.60;;;2.95;;
29330;SDS011;16331;52.528;13.342;2023-06-14T09:28:52;7.38;;;2.63;;
29330;SDS011;16331;52.528;13.342;2023-06-14T09:31:20;4.05;;;2.67;;
29330;SDS011;16331;52.528;13.342;2023-06-14T09:33:49;4.85;;;2.60;;
29330;SDS011;16331;52.528;13.342;2023-06-14T09:36:23;9.73;;;3.75;;
29330;SDS011;16331;52.528;13.342;2023-06-14T09:38:54;7.45;;;3.35;;
29330;SDS011;16331;52.528;13.342;2023-06-14T09:41:31;7.77;;;2.90;;
29330;SDS011;16331;52.528;13.342;2023-06-14T09:44:03;9.65;;;3.33;;
29330;SDS011;16331;52.528;13.342;2023-06-14T09:46:32;9.52;;;3.28;;
29330;SDS011;16331;52.528;13.342;2023-06-14T09:48:59;4.43;;;2.72;;
29330;SDS011;16331;52.528;13.342;2023-06-14T09:51:26;8.98;;;3.05;;
29330;SDS011;16331;52.528;13.342;2023-06-14T09:53:55;4.72;;;3.38;;
29330;SDS011;16331;52.528;13.342;2023-06-14T09:56:29;8.80;;;3.45;;
29330;SDS011;16331;52.528;13.342;2023-06-14T09:59:03;7.13;;;2.85;;
29330;SDS011;16331;52.528;13.342;2023-06-14T10:01:33;7.07;;;2.60;;
29330;SDS011;16331;52.528;13.342;2023-06-14T10:04:02;6.10;;;3.72;;
29330;SDS011;16331;52.528;13.342;2023-06-14T10:06:30;7.40;;;2.90;;
29330;SDS011;16331;52.528;13.342;2023-06-14T10:08:58;10.18;;;3.00;;
29330;SDS011;16331;52.528;13.342;2023-06-14T10:11:26;7.80;;;2.75;;
29330;SDS011;16331;52.528;13.342;2023-06-14T10:13:55;5.63;;;2.63;;
29330;SDS011;16331;52.528;13.342;2023-06-14T10:16:24;10.18;;;3.05;;
29330;SDS011;16331;52.528;13.342;2023-06-14T10:21:41;7.50;;;3.70;;
29330;SDS011;16331;52.528;13.342;2023-06-14T10:24:24;7.60;;;3.20;;
29330;SDS011;16331;52.528;13.342;2023-06-14T10:27:06;7.30;;;3.38;;
29330;SDS011;16331;52.528;13.342;2023-06-14T10:32:18;8.05;;;3.20;;
29330;SDS011;16331;52.528;13.342;2023-06-14T10:34:47;7.15;;;2.78;;
29330;SDS011;16331;52.528;13.342;2023-06-14T10:37:20;6.35;;;3.10;;
29330;SDS011;16331;52.528;13.342;2023-06-14T10:39:46;8.65;;;3.30;;
29330;SDS011;16331;52.528;13.342;2023-06-14T10:42:13;12.07;;;2.55;;
29330;SDS011;16331;52.528;13.342;2023-06-14T10:47:13;8.10;;;3.85;;
29330;SDS011;16331;52.528;13.342;2023-06-14T10:52:28;6.03;;;3.53;;
29330;SDS011;16331;52.528;13.342;2023-06-14T10:55:09;12.77;;;6.85;;
29330;SDS011;16331;52.528;13.342;2023-06-14T10:57:44;7.70;;;3.80;;
29330;SDS011;16331;52.528;13.342;2023-06-14T11:06:09;10.38;;;3.67;;
29330;SDS011;16331;52.528;13.342;2023-06-14T11:11:37;9.18;;;3.33;;
29330;SDS011;16331;52.528;13.342;2023-06-14T11:14:08;14.48;;;3.78;;
29330;SDS011;16331;52.528;13.342;2023-06-14T11:16:36;26.20;;;5.70;;
29330;SDS011;16331;52.528;13.342;2023-06-14T11:19:08;8.33;;;2.83;;
29330;SDS011;16331;52.528;13.342;2023-06-14T11:21:36;16.38;;;3.53;;
29330;SDS011;16331;52.528;13.342;2023-06-14T11:24:09;9.13;;;3.03;;
29330;SDS011;16331;52.528;13.342;2023-06-14T11:26:37;6.05;;;2.80;;
29330;SDS011;16331;52.528;13.342;2023-06-14T11:29:03;8.27;;;4.22;;
29330;SDS011;16331;52.528;13.342;2023-06-14T11:31:29;7.05;;;2.40;;
29330;SDS011;16331;52.528;13.342;2023-06-14T11:33:59;10.85;;;2.67;;
29330;SDS011;16331;52.528;13.342;2023-06-14T11:36:29;12.88;;;3.90;;
29330;SDS011;16331;52.528;13.342;2023-06-14T11:39:01;6.10;;;2.60;;
29330;SDS011;16331;52.528;13.342;2023-06-14T11:41:32;8.60;;;2.38;;
29330;SDS011;16331;52.528;13.342;2023-06-14T11:44:01;5.90;;;2.60;;
29330;SDS011;16331;52.528;13.342;2023-06-14T11:46:28;7.50;;;2.58;;
29330;SDS011;16331;52.528;13.342;2023-06-14T11:48:55;5.60;;;4.63;;
29330;SDS011;16331;52.528;13.342;2023-06-14T11:51:21;9.27;;;3.63;;
29330;SDS011;16331;52.528;13.342;2023-06-14T11:53:48;6.03;;;2.13;;
29330;SDS011;16331;52.528;13.342;2023-06-14T11:56:19;8.32;;;3.00;;
29330;SDS011;16331;52.528;13.342;2023-06-14T11:58:45;9.05;;;2.38;;
29330;SDS011;16331;52.528;13.342;2023-06-14T12:01:18;9.30;;;3.08;;
29330;SDS011;16331;52.528;13.342;2023-06-14T12:03:48;4.85;;;2.38;;
29330;SDS011;16331;52.528;13.342;2023-06-14T12:06:24;5.57;;;2.33;;
29330;SDS011;16331;52.528;13.342;2023-06-14T12:08:57;7.95;;;2.40;;
29330;SDS011;16331;52.528;13.342;2023-06-14T12:11:27;5.05;;;2.42;;
29330;SDS011;16331;52.528;13.342;2023-06-14T12:13:59;8.10;;;2.78;;
29330;SDS011;16331;52.528;13.342;2023-06-14T12:16:30;13.88;;;3.42;;
29330;SDS011;16331;52.528;13.342;2023-06-14T12:19:17;9.73;;;3.75;;
29330;SDS011;16331;52.528;13.342;2023-06-14T12:21:46;6.40;;;2.20;;
29330;SDS011;16331;52.528;13.342;2023-06-14T12:24:14;3.75;;;2.17;;
29330;SDS011;16331;52.528;13.342;2023-06-14T12:26:41;7.68;;;2.30;;
29330;SDS011;16331;52.528;13.342;2023-06-14T12:29:07;5.82;;;2.45;;
29330;SDS011;16331;52.528;13.342;2023-06-14T12:31:34;6.32;;;2.97;;
29330;SDS011;16331;52.528;13.342;2023-06-14T12:34:01;6.85;;;2.25;;
29330;SDS011;16331;52.528;13.342;2023-06-14T12:36:27;8.35;;;2.75;;
29330;SDS011;16331;52.528;13.342;2023-06-14T12:38:56;6.75;;;2.88;;
29330;SDS011;16331;52.528;13.342;2023-06-14T12:41:22;4.93;;;2.10;;
29330;SDS011;16331;52.528;13.342;2023-06-14T12:43:49;4.07;;;2.10;;
29330;SDS011;16331;52.528;13.342;2023-06-14T12:46:18;7.78;;;2.15;;
29330;SDS011;16331;52.528;13.342;2023-06-14T12:48:44;5.57;;;2.38;;
29330;SDS011;16331;52.528;13.342;2023-06-14T12:51:10;5.30;;;2.42;;
29330;SDS011;16331;52.528;13.342;2023-06-14T12:53:36;6.13;;;2.70;;
29330;SDS011;16331;52.528;13.342;2023-06-14T12:56:02;11.57;;;3.50;;
29330;SDS011;16331;52.528;13.342;2023-06-14T12:58:32;10.85;;;3.15;;
29330;SDS011;16331;52.528;13.342;2023-06-14T13:00:58;3.78;;;2.28;;
29330;SDS011;16331;52.528;13.342;2023-06-14T13:03:25;5.47;;;2.25;;
29330;SDS011;16331;52.528;13.342;2023-06-14T13:05:51;4.18;;;2.28;;
29330;SDS011;16331;52.528;13.342;2023-06-14T13:08:18;7.20;;;2.13;;
29330;SDS011;16331;52.528;13.342;2023-06-14T13:10:44;12.90;;;2.95;;
29330;SDS011;16331;52.528;13.342;2023-06-14T13:13:10;4.68;;;1.98;;
29330;SDS011;16331;52.528;13.342;2023-06-14T13:15:39;8.65;;;2.63;;
29330;SDS011;16331;52.528;13.342;2023-06-14T13:18:05;5.25;;;2.33;;
29330;SDS011;16331;52.528;13.342;2023-06-14T13:20:38;5.88;;;2.35;;
29330;SDS011;16331;52.528;13.342;2023-06-14T13:23:04;7.10;;;2.50;;
29330;SDS011;16331;52.528;13.342;2023-06-14T13:25:34;3.25;;;2.15;;
29330;SDS011;16331;52.528;13.342;2023-06-14T13:28:01;5.93;;;2.58;;
29330;SDS011;16331;52.528;13.342;2023-06-14T13:30:29;3.97;;;2.50;;
29330;SDS011;16331;52.528;13.342;2023-06-14T13:32:56;6.35;;;1.95;;
29330;SDS011;16331;52.528;13.342;2023-06-14T13:35:23;5.55;;;2.45;;
29330;SDS011;16331;52.528;13.342;2023-06-14T13:37:51;4.30;;;1.58;;
29330;SDS011;16331;52.528;13.342;2023-06-14T13:40:17;5.82;;;2.83;;
29330;SDS011;16331;52.528;13.342;2023-06-14T13:42:44;5.45;;;2.17;;
29330;SDS011;16331;52.528;13.342;2023-06-14T13:45:11;9.73;;;2.28;;
29330;SDS011;16331;52.528;13.342;2023-06-14T13:47:39;3.58;;;1.88;;
29330;SDS011;16331;52.528;13.342;2023-06-14T13:50:06;12.82;;;2.45;;
29330;SDS011;16331;52.528;13.342;2023-06-14T13:52:34;6.32;;;2.50;;
29330;SDS011;16331;52.528;13.342;2023-06-14T13:55:00;4.15;;;2.22;;
29330;SDS011;16331;52.528;13.342;2023-06-14T13:57:26;5.70;;;2.08;;
29330;SDS011;16331;52.528;13.342;2023-06-14T13:59:53;3.15;;;1.75;;
29330;SDS011;16331;52.528;13.342;2023-06-14T14:02:25;6.38;;;2.00;;
29330;SDS011;16331;52.528;13.342;2023-06-14T14:04:55;11.57;;;3.17;;
29330;SDS011;16331;52.528;13.342;2023-06-14T14:07:22;5.32;;;2.28;;
29330;SDS011;16331;52.528;13.342;2023-06-14T14:09:50;8.15;;;3.67;;
29330;SDS011;16331;52.528;13.342;2023-06-14T14:12:19;4.95;;;2.88;;
29330;SDS011;16331;52.528;13.342;2023-06-14T14:14:45;9.57;;;2.22;;
29330;SDS011;16331;52.528;13.342;2023-06-14T14:17:12;8.10;;;2.20;;
29330;SDS011;16331;52.528;13.342;2023-06-14T14:19:38;4.25;;;2.30;;
29330;SDS011;16331;52.528;13.342;2023-06-14T14:22:08;4.72;;;2.20;;
29330;SDS011;16331;52.528;13.342;2023-06-14T14:24:38;8.68;;;2.35;;
29330;SDS011;16331;52.528;13.342;2023-06-14T14:27:06;4.87;;;2.77;;
29330;SDS011;16331;52.528;13.342;2023-06-14T14:29:32;14.45;;;6.88;;
29330;SDS011;16331;52.528;13.342;2023-06-14T14:32:01;7.53;;;2.85;;
29330;SDS011;16331;52.528;13.342;2023-06-14T14:34:28;3.88;;;2.42;;
29330;SDS011;16331;52.528;13.342;2023-06-14T14:36:55;5.50;;;2.47;;
29330;SDS011;16331;52.528;13.342;2023-06-14T14:39:21;8.85;;;2.38;;
29330;SDS011;16331;52.528;13.342;2023-06-14T14:41:48;7.75;;;2.17;;
29330;SDS011;16331;52.528;13.342;2023-06-14T14:44:15;5.40;;;2.47;;
29330;SDS011;16331;52.528;13.342;2023-06-14T14:46:43;12.65;;;3.60;;
29330;SDS011;16331;52.528;13.342;2023-06-14T14:49:09;4.93;;;2.20;;
29330;SDS011;16331;52.528;13.342;2023-06-14T14:51:35;6.75;;;2.25;;
29330;SDS011;16331;52.528;13.342;2023-06-14T14:54:06;6.07;;;2.92;;
29330;SDS011;16331;52.528;13.342;2023-06-14T14:56:32;5.32;;;2.70;;
29330;SDS011;16331;52.528;13.342;2023-06-14T14:59:03;5.25;;;3.00;;
29330;SDS011;16331;52.528;13.342;2023-06-14T15:01:29;7.18;;;2.70;;
29330;SDS011;16331;52.528;13.342;2023-06-14T15:03:55;8.52;;;3.38;;
29330;SDS011;16331;52.528;13.342;2023-06-14T15:06:21;7.05;;;2.60;;
29330;SDS011;16331;52.528;13.342;2023-06-14T15:08:49;8.10;;;3.33;;
29330;SDS011;16331;52.528;13.342;2023-06-14T15:11:17;6.00;;;2.40;;
29330;SDS011;16331;52.528;13.342;2023-06-14T15:13:44;5.53;;;2.47;;
29330;SDS011;16331;52.528;13.342;2023-06-14T15:16:12;9.68;;;3.28;;
29330;SDS011;16331;52.528;13.342;2023-06-14T15:18:39;10.30;;;2.85;;
29330;SDS011;16331;52.528;13.342;2023-06-14T15:21:06;10.73;;;3.40;;